CheckWX is a tool to help pilots better visualize weather data.  It is not intended as a substitute for an official pre-flight weather briefing.

03:29:44 UTC

LOWG TAF
Graz Airport
Graz, Austria
TAF LOWG 250515Z 2506/2606 VRB04KT 9999 SCT060 TX17/2512Z TN08/2603Z TEMPO 2506/2518 36008KT -SHRA PROB30 TEMPO 2510/2518 SHRA FEW050CB BKN060

May-25@
06:00 UTC

May-25 @ 06:00 UTC

May-26@
06:00 UTC

May-26 @ 06:00 UTC

TAF LOWG 250515Z 2506/2606 VRB04KT 9999 SCT060 TX17/2512Z TN08/2603Z
Wind
  • Variable at 4 KTS
Cloud Levels
  • Scattered at 6,000' AGL

May-25@
06:00 UTC

May-25 @ 06:00 UTC

May-25@
18:00 UTC

May-25 @ 18:00 UTC

TEMPO 2506/2518 36008KT -SHRA

Expired

Wind
  • 360° at 8 KTS
Conditions
Light Showers, Rain
Cloud Levels

May-25@
10:00 UTC

May-25 @ 10:00 UTC

May-25@
18:00 UTC

May-25 @ 18:00 UTC

PROB30 TEMPO 2510/2518 SHRA FEW050CB BKN060

Expired

Conditions
Showers, Rain
Cloud Levels
  • Few at 5,000' AGL
  • Broken at 6,000' AGL